sensor_id;sensor_type;location;lat;lon;timestamp;P1;durP1;ratioP1;P2;durP2;ratioP2
67500;SDS011;54349;52.528;19.760;2023-09-19T00:02:03;10.00;;;7.60;;
67500;SDS011;54349;52.528;19.760;2023-09-19T00:04:35;10.30;;;7.50;;
67500;SDS011;54349;52.528;19.760;2023-09-19T00:07:03;10.10;;;7.70;;
67500;SDS011;54349;52.528;19.760;2023-09-19T00:09:31;10.60;;;7.70;;
67500;SDS011;54349;52.528;19.760;2023-09-19T00:12:06;10.90;;;7.20;;
67500;SDS011;54349;52.528;19.760;2023-09-19T00:14:34;10.20;;;7.80;;
67500;SDS011;54349;52.528;19.760;2023-09-19T00:17:04;10.50;;;7.50;;
67500;SDS011;54349;52.528;19.760;2023-09-19T00:19:36;10.10;;;7.50;;
67500;SDS011;54349;52.528;19.760;2023-09-19T00:22:10;10.70;;;7.50;;
67500;SDS011;54349;52.528;19.760;2023-09-19T00:24:41;9.60;;;7.50;;
67500;SDS011;54349;52.528;19.760;2023-09-19T00:27:09;11.40;;;7.60;;
67500;SDS011;54349;52.528;19.760;2023-09-19T00:29:37;9.70;;;7.60;;
67500;SDS011;54349;52.528;19.760;2023-09-19T00:32:07;10.00;;;7.50;;
67500;SDS011;54349;52.528;19.760;2023-09-19T00:34:35;11.10;;;7.50;;
67500;SDS011;54349;52.528;19.760;2023-09-19T00:37:03;10.10;;;7.40;;
67500;SDS011;54349;52.528;19.760;2023-09-19T00:39:31;9.80;;;7.90;;
67500;SDS011;54349;52.528;19.760;2023-09-19T00:42:00;9.60;;;7.40;;
67500;SDS011;54349;52.528;19.760;2023-09-19T00:44:33;9.10;;;7.10;;
67500;SDS011;54349;52.528;19.760;2023-09-19T00:47:02;9.80;;;7.20;;
67500;SDS011;54349;52.528;19.760;2023-09-19T00:49:32;9.40;;;7.10;;
67500;SDS011;54349;52.528;19.760;2023-09-19T00:52:01;11.10;;;8.20;;
67500;SDS011;54349;52.528;19.760;2023-09-19T00:54:29;8.90;;;7.10;;
67500;SDS011;54349;52.528;19.760;2023-09-19T00:56:57;9.30;;;7.30;;
67500;SDS011;54349;52.528;19.760;2023-09-19T00:59:26;9.40;;;7.50;;
67500;SDS011;54349;52.528;19.760;2023-09-19T01:01:58;8.90;;;6.60;;
67500;SDS011;54349;52.528;19.760;2023-09-19T01:04:28;10.30;;;7.60;;
67500;SDS011;54349;52.528;19.760;2023-09-19T01:06:58;10.60;;;7.60;;
67500;SDS011;54349;52.528;19.760;2023-09-19T01:09:26;9.80;;;7.50;;
67500;SDS011;54349;52.528;19.760;2023-09-19T01:12:00;9.60;;;7.50;;
67500;SDS011;54349;52.528;19.760;2023-09-19T01:14:56;10.20;;;7.30;;
67500;SDS011;54349;52.528;19.760;2023-09-19T01:17:41;9.30;;;6.90;;
67500;SDS011;54349;52.528;19.760;2023-09-19T01:21:14;9.20;;;7.40;;
67500;SDS011;54349;52.528;19.760;2023-09-19T01:23:27;9.70;;;7.40;;
67500;SDS011;54349;52.528;19.760;2023-09-19T01:29:44;9.90;;;7.70;;
67500;SDS011;54349;52.528;19.760;2023-09-19T01:32:36;9.90;;;7.90;;
67500;SDS011;54349;52.528;19.760;2023-09-19T01:35:06;10.00;;;7.60;;
67500;SDS011;54349;52.528;19.760;2023-09-19T01:37:39;9.50;;;7.70;;
67500;SDS011;54349;52.528;19.760;2023-09-19T01:40:19;10.00;;;8.50;;
67500;SDS011;54349;52.528;19.760;2023-09-19T01:43:09;9.50;;;7.60;;
67500;SDS011;54349;52.528;19.760;2023-09-19T01:45:59;9.60;;;7.80;;
67500;SDS011;54349;52.528;19.760;2023-09-19T01:54:46;9.10;;;7.70;;
67500;SDS011;54349;52.528;19.760;2023-09-19T01:57:35;10.10;;;8.20;;
67500;SDS011;54349;52.528;19.760;2023-09-19T02:00:12;9.20;;;7.50;;
67500;SDS011;54349;52.528;19.760;2023-09-19T02:02:46;10.90;;;8.30;;
67500;SDS011;54349;52.528;19.760;2023-09-19T02:05:23;10.40;;;7.80;;
67500;SDS011;54349;52.528;19.760;2023-09-19T02:07:54;10.00;;;7.70;;
67500;SDS011;54349;52.528;19.760;2023-09-19T02:10:23;10.30;;;8.00;;
67500;SDS011;54349;52.528;19.760;2023-09-19T02:12:52;11.00;;;7.90;;
67500;SDS011;54349;52.528;19.760;2023-09-19T02:15:20;10.80;;;8.20;;
67500;SDS011;54349;52.528;19.760;2023-09-19T02:17:50;9.60;;;8.00;;
67500;SDS011;54349;52.528;19.760;2023-09-19T02:20:18;11.40;;;8.60;;
67500;SDS011;54349;52.528;19.760;2023-09-19T02:22:48;9.60;;;8.30;;
67500;SDS011;54349;52.528;19.760;2023-09-19T02:25:18;11.10;;;8.30;;
67500;SDS011;54349;52.528;19.760;2023-09-19T02:27:47;9.50;;;7.60;;
67500;SDS011;54349;52.528;19.760;2023-09-19T02:30:16;9.90;;;8.40;;
67500;SDS011;54349;52.528;19.760;2023-09-19T02:32:49;10.40;;;7.70;;
67500;SDS011;54349;52.528;19.760;2023-09-19T02:35:17;9.50;;;7.60;;
67500;SDS011;54349;52.528;19.760;2023-09-19T02:37:48;10.90;;;7.60;;
67500;SDS011;54349;52.528;19.760;2023-09-19T02:40:17;10.30;;;8.10;;
67500;SDS011;54349;52.528;19.760;2023-09-19T02:42:55;10.50;;;8.40;;
67500;SDS011;54349;52.528;19.760;2023-09-19T02:45:24;9.90;;;8.30;;
67500;SDS011;54349;52.528;19.760;2023-09-19T02:47:53;10.50;;;8.60;;
67500;SDS011;54349;52.528;19.760;2023-09-19T02:50:22;10.20;;;8.30;;
67500;SDS011;54349;52.528;19.760;2023-09-19T02:52:51;10.90;;;8.00;;
67500;SDS011;54349;52.528;19.760;2023-09-19T02:55:21;11.80;;;8.40;;
67500;SDS011;54349;52.528;19.760;2023-09-19T02:57:51;11.40;;;8.10;;
67500;SDS011;54349;52.528;19.760;2023-09-19T03:02:54;9.60;;;7.60;;
67500;SDS011;54349;52.528;19.760;2023-09-19T03:05:24;11.20;;;8.20;;
67500;SDS011;54349;52.528;19.760;2023-09-19T03:07:53;9.80;;;7.70;;
67500;SDS011;54349;52.528;19.760;2023-09-19T03:10:21;11.80;;;8.40;;
67500;SDS011;54349;52.528;19.760;2023-09-19T03:12:50;12.00;;;8.20;;
67500;SDS011;54349;52.528;19.760;2023-09-19T03:15:19;9.90;;;8.30;;
67500;SDS011;54349;52.528;19.760;2023-09-19T03:17:50;10.60;;;8.60;;
67500;SDS011;54349;52.528;19.760;2023-09-19T03:20:23;11.50;;;8.20;;
67500;SDS011;54349;52.528;19.760;2023-09-19T03:22:55;9.20;;;7.80;;
67500;SDS011;54349;52.528;19.760;2023-09-19T03:25:25;10.30;;;8.30;;
67500;SDS011;54349;52.528;19.760;2023-09-19T03:27:56;9.80;;;8.00;;
67500;SDS011;54349;52.528;19.760;2023-09-19T03:30:26;11.10;;;8.20;;
67500;SDS011;54349;52.528;19.760;2023-09-19T03:32:55;10.10;;;8.10;;
67500;SDS011;54349;52.528;19.760;2023-09-19T03:35:24;10.30;;;8.60;;
67500;SDS011;54349;52.528;19.760;2023-09-19T03:37:53;10.70;;;8.10;;
67500;SDS011;54349;52.528;19.760;2023-09-19T03:40:21;10.80;;;8.50;;
67500;SDS011;54349;52.528;19.760;2023-09-19T03:42:51;11.70;;;8.30;;
67500;SDS011;54349;52.528;19.760;2023-09-19T03:45:19;9.90;;;8.20;;
67500;SDS011;54349;52.528;19.760;2023-09-19T03:47:50;10.00;;;8.30;;
67500;SDS011;54349;52.528;19.760;2023-09-19T03:50:20;9.90;;;7.80;;
67500;SDS011;54349;52.528;19.760;2023-09-19T03:52:49;10.50;;;8.30;;
67500;SDS011;54349;52.528;19.760;2023-09-19T03:55:17;12.50;;;8.80;;
67500;SDS011;54349;52.528;19.760;2023-09-19T03:57:48;10.10;;;8.80;;
67500;SDS011;54349;52.528;19.760;2023-09-19T04:00:17;10.80;;;8.40;;
67500;SDS011;54349;52.528;19.760;2023-09-19T04:02:52;10.80;;;8.30;;
67500;SDS011;54349;52.528;19.760;2023-09-19T04:05:21;9.30;;;8.00;;
67500;SDS011;54349;52.528;19.760;2023-09-19T04:07:50;11.00;;;8.20;;
67500;SDS011;54349;52.528;19.760;2023-09-19T04:10:18;10.50;;;8.20;;
67500;SDS011;54349;52.528;19.760;2023-09-19T04:12:51;11.20;;;8.70;;
67500;SDS011;54349;52.528;19.760;2023-09-19T04:15:24;10.90;;;8.40;;
67500;SDS011;54349;52.528;19.760;2023-09-19T04:17:55;10.10;;;8.30;;
67500;SDS011;54349;52.528;19.760;2023-09-19T04:20:24;9.90;;;8.00;;
67500;SDS011;54349;52.528;19.760;2023-09-19T04:22:53;11.80;;;8.30;;
67500;SDS011;54349;52.528;19.760;2023-09-19T04:25:21;9.70;;;8.20;;
67500;SDS011;54349;52.528;19.760;2023-09-19T04:27:49;10.60;;;7.90;;
67500;SDS011;54349;52.528;19.760;2023-09-19T04:30:18;10.90;;;8.30;;
67500;SDS011;54349;52.528;19.760;2023-09-19T04:32:45;10.80;;;8.50;;
67500;SDS011;54349;52.528;19.760;2023-09-19T04:35:19;10.20;;;8.60;;
67500;SDS011;54349;52.528;19.760;2023-09-19T04:37:50;11.90;;;8.70;;
67500;SDS011;54349;52.528;19.760;2023-09-19T04:40:18;12.20;;;8.70;;
67500;SDS011;54349;52.528;19.760;2023-09-19T04:42:54;11.10;;;8.30;;
67500;SDS011;54349;52.528;19.760;2023-09-19T04:45:27;11.20;;;8.40;;
67500;SDS011;54349;52.528;19.760;2023-09-19T04:47:58;11.30;;;8.50;;
67500;SDS011;54349;52.528;19.760;2023-09-19T04:50:27;10.90;;;8.80;;
67500;SDS011;54349;52.528;19.760;2023-09-19T04:52:56;12.10;;;8.70;;
67500;SDS011;54349;52.528;19.760;2023-09-19T04:55:24;10.20;;;8.10;;
67500;SDS011;54349;52.528;19.760;2023-09-19T04:57:58;11.20;;;8.60;;
67500;SDS011;54349;52.528;19.760;2023-09-19T05:00:29;11.10;;;8.60;;
67500;SDS011;54349;52.528;19.760;2023-09-19T05:02:59;12.30;;;8.70;;
67500;SDS011;54349;52.528;19.760;2023-09-19T05:05:32;14.90;;;9.60;;
67500;SDS011;54349;52.528;19.760;2023-09-19T05:08:05;16.00;;;9.90;;
67500;SDS011;54349;52.528;19.760;2023-09-19T05:10:38;19.20;;;11.30;;
67500;SDS011;54349;52.528;19.760;2023-09-19T05:13:07;19.30;;;10.80;;
67500;SDS011;54349;52.528;19.760;2023-09-19T05:15:38;22.70;;;12.10;;
67500;SDS011;54349;52.528;19.760;2023-09-19T05:18:08;21.20;;;10.70;;
67500;SDS011;54349;52.528;19.760;2023-09-19T05:20:38;22.30;;;11.30;;
67500;SDS011;54349;52.528;19.760;2023-09-19T05:23:11;21.30;;;11.10;;
67500;SDS011;54349;52.528;19.760;2023-09-19T05:25:40;22.30;;;11.70;;
67500;SDS011;54349;52.528;19.760;2023-09-19T05:28:10;21.10;;;11.50;;
67500;SDS011;54349;52.528;19.760;2023-09-19T05:30:43;21.40;;;11.70;;
67500;SDS011;54349;52.528;19.760;2023-09-19T05:33:16;18.40;;;10.80;;
67500;SDS011;54349;52.528;19.760;2023-09-19T05:35:48;18.80;;;11.10;;
67500;SDS011;54349;52.528;19.760;2023-09-19T05:38:17;23.00;;;11.20;;
67500;SDS011;54349;52.528;19.760;2023-09-19T05:40:48;19.40;;;11.70;;
67500;SDS011;54349;52.528;19.760;2023-09-19T05:43:16;16.60;;;10.50;;
67500;SDS011;54349;52.528;19.760;2023-09-19T05:45:46;15.50;;;10.90;;
67500;SDS011;54349;52.528;19.760;2023-09-19T05:48:19;14.40;;;10.60;;
67500;SDS011;54349;52.528;19.760;2023-09-19T05:50:49;13.90;;;10.00;;
67500;SDS011;54349;52.528;19.760;2023-09-19T05:53:19;15.50;;;9.60;;
67500;SDS011;54349;52.528;19.760;2023-09-19T05:55:47;15.80;;;9.90;;
67500;SDS011;54349;52.528;19.760;2023-09-19T05:58:17;16.10;;;9.70;;
67500;SDS011;54349;52.528;19.760;2023-09-19T06:00:46;15.40;;;10.40;;
67500;SDS011;54349;52.528;19.760;2023-09-19T06:03:17;12.00;;;9.00;;
67500;SDS011;54349;52.528;19.760;2023-09-19T06:05:47;11.30;;;8.50;;
67500;SDS011;54349;52.528;19.760;2023-09-19T06:08:18;11.20;;;8.40;;
67500;SDS011;54349;52.528;19.760;2023-09-19T06:10:47;12.20;;;8.40;;
67500;SDS011;54349;52.528;19.760;2023-09-19T06:13:19;14.00;;;8.80;;
67500;SDS011;54349;52.528;19.760;2023-09-19T06:15:50;11.90;;;8.00;;
67500;SDS011;54349;52.528;19.760;2023-09-19T06:18:21;13.30;;;8.60;;
67500;SDS011;54349;52.528;19.760;2023-09-19T06:21:01;11.10;;;8.00;;
67500;SDS011;54349;52.528;19.760;2023-09-19T06:23:37;10.70;;;8.10;;
67500;SDS011;54349;52.528;19.760;2023-09-19T06:26:07;10.90;;;8.00;;
67500;SDS011;54349;52.528;19.760;2023-09-19T06:28:36;10.90;;;7.90;;
67500;SDS011;54349;52.528;19.760;2023-09-19T06:31:04;11.10;;;7.80;;
67500;SDS011;54349;52.528;19.760;2023-09-19T06:33:38;11.30;;;7.60;;
67500;SDS011;54349;52.528;19.760;2023-09-19T06:36:07;11.60;;;7.60;;
67500;SDS011;54349;52.528;19.760;2023-09-19T06:38:37;10.10;;;7.30;;
67500;SDS011;54349;52.528;19.760;2023-09-19T06:41:07;9.50;;;7.20;;
67500;SDS011;54349;52.528;19.760;2023-09-19T06:43:38;11.10;;;8.00;;
67500;SDS011;54349;52.528;19.760;2023-09-19T06:46:09;11.00;;;7.30;;
67500;SDS011;54349;52.528;19.760;2023-09-19T06:48:42;10.70;;;7.10;;
67500;SDS011;54349;52.528;19.760;2023-09-19T06:51:13;10.20;;;7.50;;
67500;SDS011;54349;52.528;19.760;2023-09-19T06:53:46;11.20;;;7.40;;
67500;SDS011;54349;52.528;19.760;2023-09-19T06:56:15;12.00;;;7.70;;
67500;SDS011;54349;52.528;19.760;2023-09-19T06:58:44;9.60;;;7.20;;
67500;SDS011;54349;52.528;19.760;2023-09-19T07:01:13;10.90;;;7.80;;
67500;SDS011;54349;52.528;19.760;2023-09-19T07:03:42;10.10;;;7.60;;
67500;SDS011;54349;52.528;19.760;2023-09-19T07:06:13;10.30;;;6.90;;
67500;SDS011;54349;52.528;19.760;2023-09-19T07:08:42;9.20;;;6.40;;
67500;SDS011;54349;52.528;19.760;2023-09-19T07:11:11;9.30;;;6.60;;
67500;SDS011;54349;52.528;19.760;2023-09-19T07:13:41;9.00;;;7.10;;
67500;SDS011;54349;52.528;19.760;2023-09-19T07:16:10;9.00;;;6.70;;
67500;SDS011;54349;52.528;19.760;2023-09-19T07:18:58;10.50;;;6.70;;
67500;SDS011;54349;52.528;19.760;2023-09-19T07:21:26;9.30;;;6.70;;
67500;SDS011;54349;52.528;19.760;2023-09-19T07:23:54;9.10;;;6.40;;
67500;SDS011;54349;52.528;19.760;2023-09-19T07:26:22;10.00;;;6.50;;
67500;SDS011;54349;52.528;19.760;2023-09-19T07:28:50;9.50;;;6.90;;
67500;SDS011;54349;52.528;19.760;2023-09-19T07:31:18;10.90;;;6.20;;
67500;SDS011;54349;52.528;19.760;2023-09-19T07:33:46;10.10;;;6.40;;
67500;SDS011;54349;52.528;19.760;2023-09-19T07:36:14;8.70;;;6.60;;
67500;SDS011;54349;52.528;19.760;2023-09-19T07:38:43;8.70;;;6.10;;
67500;SDS011;54349;52.528;19.760;2023-09-19T07:41:11;8.80;;;5.90;;
67500;SDS011;54349;52.528;19.760;2023-09-19T07:43:40;8.60;;;6.20;;
67500;SDS011;54349;52.528;19.760;2023-09-19T07:46:11;10.40;;;6.30;;
67500;SDS011;54349;52.528;19.760;2023-09-19T07:48:42;11.00;;;6.00;;
67500;SDS011;54349;52.528;19.760;2023-09-19T07:51:15;8.30;;;5.70;;
67500;SDS011;54349;52.528;19.760;2023-09-19T07:53:45;8.90;;;6.20;;
67500;SDS011;54349;52.528;19.760;2023-09-19T07:56:14;9.10;;;5.90;;
67500;SDS011;54349;52.528;19.760;2023-09-19T07:58:42;8.60;;;6.00;;
67500;SDS011;54349;52.528;19.760;2023-09-19T08:01:13;8.40;;;6.00;;
67500;SDS011;54349;52.528;19.760;2023-09-19T08:03:42;8.60;;;5.80;;
67500;SDS011;54349;52.528;19.760;2023-09-19T08:06:11;9.10;;;5.80;;
67500;SDS011;54349;52.528;19.760;2023-09-19T08:08:42;8.60;;;5.70;;
67500;SDS011;54349;52.528;19.760;2023-09-19T08:11:10;9.00;;;5.90;;
67500;SDS011;54349;52.528;19.760;2023-09-19T08:13:41;9.10;;;6.10;;
67500;SDS011;54349;52.528;19.760;2023-09-19T08:16:14;8.20;;;5.80;;
67500;SDS011;54349;52.528;19.760;2023-09-19T08:18:47;10.30;;;5.90;;
67500;SDS011;54349;52.528;19.760;2023-09-19T08:21:16;8.00;;;5.80;;
67500;SDS011;54349;52.528;19.760;2023-09-19T08:23:44;7.60;;;5.60;;
67500;SDS011;54349;52.528;19.760;2023-09-19T08:26:13;9.20;;;5.40;;
67500;SDS011;54349;52.528;19.760;2023-09-19T08:28:41;7.30;;;5.30;;
67500;SDS011;54349;52.528;19.760;2023-09-19T08:31:10;9.00;;;5.80;;
67500;SDS011;54349;52.528;19.760;2023-09-19T08:33:39;7.50;;;5.20;;
67500;SDS011;54349;52.528;19.760;2023-09-19T08:36:09;7.90;;;5.40;;
67500;SDS011;54349;52.528;19.760;2023-09-19T08:38:37;8.60;;;5.60;;
67500;SDS011;54349;52.528;19.760;2023-09-19T08:41:07;7.30;;;5.00;;
67500;SDS011;54349;52.528;19.760;2023-09-19T08:43:36;8.80;;;5.70;;
67500;SDS011;54349;52.528;19.760;2023-09-19T08:48:34;8.70;;;5.90;;
67500;SDS011;54349;52.528;19.760;2023-09-19T08:51:09;7.20;;;5.30;;
67500;SDS011;54349;52.528;19.760;2023-09-19T08:54:07;8.70;;;5.40;;
67500;SDS011;54349;52.528;19.760;2023-09-19T08:56:35;7.80;;;5.30;;
67500;SDS011;54349;52.528;19.760;2023-09-19T08:59:07;8.40;;;5.20;;
67500;SDS011;54349;52.528;19.760;2023-09-19T09:01:37;7.40;;;5.10;;
67500;SDS011;54349;52.528;19.760;2023-09-19T09:04:09;7.90;;;5.10;;
67500;SDS011;54349;52.528;19.760;2023-09-19T09:06:42;6.70;;;5.00;;
67500;SDS011;54349;52.528;19.760;2023-09-19T09:09:12;8.30;;;5.50;;
67500;SDS011;54349;52.528;19.760;2023-09-19T09:11:41;7.60;;;5.40;;
67500;SDS011;54349;52.528;19.760;2023-09-19T09:14:10;6.60;;;4.70;;
67500;SDS011;54349;52.528;19.760;2023-09-19T09:16:39;7.20;;;4.60;;
67500;SDS011;54349;52.528;19.760;2023-09-19T09:19:09;6.90;;;5.00;;
67500;SDS011;54349;52.528;19.760;2023-09-19T09:21:39;6.80;;;4.50;;
67500;SDS011;54349;52.528;19.760;2023-09-19T09:24:31;8.10;;;5.00;;
67500;SDS011;54349;52.528;19.760;2023-09-19T09:27:06;7.30;;;4.80;;
67500;SDS011;54349;52.528;19.760;2023-09-19T09:29:42;8.10;;;5.00;;
67500;SDS011;54349;52.528;19.760;2023-09-19T09:32:24;7.60;;;4.60;;
67500;SDS011;54349;52.528;19.760;2023-09-19T09:35:00;6.70;;;4.90;;
67500;SDS011;54349;52.528;19.760;2023-09-19T09:37:29;7.00;;;4.40;;
67500;SDS011;54349;52.528;19.760;2023-09-19T09:40:00;6.90;;;4.70;;
67500;SDS011;54349;52.528;19.760;2023-09-19T09:42:42;7.30;;;4.30;;
67500;SDS011;54349;52.528;19.760;2023-09-19T09:45:24;6.30;;;4.40;;
67500;SDS011;54349;52.528;19.760;2023-09-19T09:48:03;7.60;;;4.60;;
67500;SDS011;54349;52.528;19.760;2023-09-19T09:50:48;7.70;;;4.00;;
67500;SDS011;54349;52.528;19.760;2023-09-19T09:53:28;6.30;;;4.40;;
67500;SDS011;54349;52.528;19.760;2023-09-19T09:56:04;7.40;;;4.30;;
67500;SDS011;54349;52.528;19.760;2023-09-19T09:58:57;5.90;;;4.00;;
67500;SDS011;54349;52.528;19.760;2023-09-19T10:01:27;6.60;;;3.80;;
67500;SDS011;54349;52.528;19.760;2023-09-19T10:03:59;6.30;;;3.90;;
67500;SDS011;54349;52.528;19.760;2023-09-19T10:06:40;6.00;;;4.00;;
67500;SDS011;54349;52.528;19.760;2023-09-19T10:09:15;7.40;;;3.90;;
67500;SDS011;54349;52.528;19.760;2023-09-19T10:12:03;6.70;;;3.80;;
67500;SDS011;54349;52.528;19.760;2023-09-19T10:14:38;5.80;;;4.10;;
67500;SDS011;54349;52.528;19.760;2023-09-19T10:17:13;7.80;;;3.60;;
67500;SDS011;54349;52.528;19.760;2023-09-19T10:19:55;6.30;;;3.70;;
67500;SDS011;54349;52.528;19.760;2023-09-19T10:22:28;7.00;;;4.20;;
67500;SDS011;54349;52.528;19.760;2023-09-19T10:25:00;6.20;;;3.70;;
67500;SDS011;54349;52.528;19.760;2023-09-19T10:27:33;5.30;;;3.60;;
67500;SDS011;54349;52.528;19.760;2023-09-19T10:30:06;6.60;;;3.60;;
67500;SDS011;54349;52.528;19.760;2023-09-19T10:32:39;5.80;;;3.80;;
67500;SDS011;54349;52.528;19.760;2023-09-19T10:35:11;5.20;;;3.60;;
67500;SDS011;54349;52.528;19.760;2023-09-19T10:37:44;7.10;;;3.70;;
67500;SDS011;54349;52.528;19.760;2023-09-19T10:40:18;5.30;;;3.30;;
67500;SDS011;54349;52.528;19.760;2023-09-19T10:42:48;5.10;;;3.40;;
67500;SDS011;54349;52.528;19.760;2023-09-19T10:45:19;8.00;;;3.40;;
67500;SDS011;54349;52.528;19.760;2023-09-19T10:47:51;5.80;;;3.40;;
67500;SDS011;54349;52.528;19.760;2023-09-19T10:50:36;5.60;;;3.30;;
67500;SDS011;54349;52.528;19.760;2023-09-19T10:53:14;4.70;;;3.30;;
67500;SDS011;54349;52.528;19.760;2023-09-19T10:55:50;6.30;;;3.30;;
67500;SDS011;54349;52.528;19.760;2023-09-19T10:58:27;5.40;;;3.30;;
67500;SDS011;54349;52.528;19.760;2023-09-19T11:00:58;4.10;;;3.00;;
67500;SDS011;54349;52.528;19.760;2023-09-19T11:03:46;5.90;;;3.40;;
67500;SDS011;54349;52.528;19.760;2023-09-19T11:06:18;6.40;;;3.50;;
67500;SDS011;54349;52.528;19.760;2023-09-19T11:08:56;6.70;;;3.40;;
67500;SDS011;54349;52.528;19.760;2023-09-19T11:11:51;5.20;;;3.10;;
67500;SDS011;54349;52.528;19.760;2023-09-19T11:17:32;7.40;;;3.50;;
67500;SDS011;54349;52.528;19.760;2023-09-19T11:30:40;5.60;;;3.10;;
67500;SDS011;54349;52.528;19.760;2023-09-19T11:33:25;6.50;;;3.30;;
67500;SDS011;54349;52.528;19.760;2023-09-19T11:43:54;5.60;;;3.70;;
67500;SDS011;54349;52.528;19.760;2023-09-19T11:49:26;6.80;;;3.70;;
67500;SDS011;54349;52.528;19.760;2023-09-19T11:52:01;7.00;;;3.50;;
67500;SDS011;54349;52.528;19.760;2023-09-19T11:54:33;7.00;;;3.70;;
67500;SDS011;54349;52.528;19.760;2023-09-19T11:57:01;5.70;;;3.70;;
67500;SDS011;54349;52.528;19.760;2023-09-19T11:59:30;5.20;;;3.40;;
67500;SDS011;54349;52.528;19.760;2023-09-19T12:02:05;6.40;;;3.60;;
67500;SDS011;54349;52.528;19.760;2023-09-19T12:04:37;6.50;;;3.50;;
67500;SDS011;54349;52.528;19.760;2023-09-19T12:07:12;5.80;;;3.40;;
67500;SDS011;54349;52.528;19.760;2023-09-19T12:09:46;6.00;;;3.10;;
67500;SDS011;54349;52.528;19.760;2023-09-19T12:14:56;6.30;;;3.50;;
67500;SDS011;54349;52.528;19.760;2023-09-19T12:17:37;6.00;;;3.50;;
67500;SDS011;54349;52.528;19.760;2023-09-19T12:20:07;5.70;;;3.60;;
67500;SDS011;54349;52.528;19.760;2023-09-19T12:22:44;5.90;;;3.30;;
67500;SDS011;54349;52.528;19.760;2023-09-19T12:25:15;6.80;;;3.30;;
67500;SDS011;54349;52.528;19.760;2023-09-19T12:27:49;5.10;;;3.30;;
67500;SDS011;54349;52.528;19.760;2023-09-19T12:30:27;7.00;;;3.60;;
67500;SDS011;54349;52.528;19.760;2023-09-19T12:32:57;5.90;;;3.30;;
67500;SDS011;54349;52.528;19.760;2023-09-19T12:35:31;7.10;;;3.40;;
67500;SDS011;54349;52.528;19.760;2023-09-19T12:38:03;5.50;;;3.60;;
67500;SDS011;54349;52.528;19.760;2023-09-19T12:40:33;7.00;;;3.50;;
67500;SDS011;54349;52.528;19.760;2023-09-19T12:43:04;4.60;;;2.90;;
67500;SDS011;54349;52.528;19.760;2023-09-19T12:45:35;5.00;;;3.40;;
67500;SDS011;54349;52.528;19.760;2023-09-19T12:48:23;6.30;;;3.20;;
67500;SDS011;54349;52.528;19.760;2023-09-19T12:51:05;4.80;;;3.10;;
67500;SDS011;54349;52.528;19.760;2023-09-19T12:53:38;5.30;;;3.30;;
67500;SDS011;54349;52.528;19.760;2023-09-19T12:56:13;4.80;;;2.70;;
67500;SDS011;54349;52.528;19.760;2023-09-19T12:58:58;4.80;;;3.10;;
67500;SDS011;54349;52.528;19.760;2023-09-19T13:01:30;5.20;;;3.10;;
67500;SDS011;54349;52.528;19.760;2023-09-19T13:04:18;7.00;;;3.50;;
67500;SDS011;54349;52.528;19.760;2023-09-19T13:06:50;4.60;;;3.00;;
67500;SDS011;54349;52.528;19.760;2023-09-19T13:09:21;4.50;;;2.90;;
67500;SDS011;54349;52.528;19.760;2023-09-19T13:11:56;4.70;;;3.20;;
67500;SDS011;54349;52.528;19.760;2023-09-19T13:14:30;4.80;;;2.90;;
67500;SDS011;54349;52.528;19.760;2023-09-19T13:17:23;6.00;;;3.00;;
67500;SDS011;54349;52.528;19.760;2023-09-19T13:19:52;5.30;;;3.00;;
67500;SDS011;54349;52.528;19.760;2023-09-19T13:22:44;6.20;;;2.80;;
67500;SDS011;54349;52.528;19.760;2023-09-19T13:25:27;4.30;;;2.90;;
67500;SDS011;54349;52.528;19.760;2023-09-19T13:28:01;5.20;;;2.80;;
67500;SDS011;54349;52.528;19.760;2023-09-19T13:30:37;5.00;;;2.80;;
67500;SDS011;54349;52.528;19.760;2023-09-19T13:33:11;3.90;;;2.60;;
67500;SDS011;54349;52.528;19.760;2023-09-19T13:35:41;6.00;;;3.10;;
67500;SDS011;54349;52.528;19.760;2023-09-19T13:38:09;4.40;;;2.80;;
67500;SDS011;54349;52.528;19.760;2023-09-19T13:40:40;4.30;;;2.80;;
67500;SDS011;54349;52.528;19.760;2023-09-19T13:43:10;4.30;;;2.60;;
67500;SDS011;54349;52.528;19.760;2023-09-19T13:45:40;5.00;;;2.90;;
67500;SDS011;54349;52.528;19.760;2023-09-19T13:48:11;5.70;;;2.60;;
67500;SDS011;54349;52.528;19.760;2023-09-19T13:50:41;5.00;;;2.80;;
67500;SDS011;54349;52.528;19.760;2023-09-19T13:53:10;3.90;;;2.40;;
67500;SDS011;54349;52.528;19.760;2023-09-19T13:55:39;3.90;;;2.60;;
67500;SDS011;54349;52.528;19.760;2023-09-19T13:58:08;4.70;;;3.00;;
67500;SDS011;54349;52.528;19.760;2023-09-19T14:00:39;3.90;;;2.90;;
67500;SDS011;54349;52.528;19.760;2023-09-19T14:03:07;4.60;;;2.90;;
67500;SDS011;54349;52.528;19.760;2023-09-19T14:05:37;4.90;;;2.80;;
67500;SDS011;54349;52.528;19.760;2023-09-19T14:08:05;4.00;;;2.70;;
67500;SDS011;54349;52.528;19.760;2023-09-19T14:10:33;5.40;;;3.20;;
67500;SDS011;54349;52.528;19.760;2023-09-19T14:13:03;6.20;;;3.20;;
67500;SDS011;54349;52.528;19.760;2023-09-19T14:15:32;6.10;;;2.80;;
67500;SDS011;54349;52.528;19.760;2023-09-19T14:18:03;4.70;;;2.80;;
67500;SDS011;54349;52.528;19.760;2023-09-19T14:20:31;5.40;;;2.50;;
67500;SDS011;54349;52.528;19.760;2023-09-19T14:22:59;7.20;;;3.10;;
67500;SDS011;54349;52.528;19.760;2023-09-19T14:25:28;4.50;;;2.70;;
67500;SDS011;54349;52.528;19.760;2023-09-19T14:27:58;4.60;;;2.50;;
67500;SDS011;54349;52.528;19.760;2023-09-19T14:30:26;4.70;;;2.40;;
67500;SDS011;54349;52.528;19.760;2023-09-19T14:32:55;5.80;;;2.70;;
67500;SDS011;54349;52.528;19.760;2023-09-19T14:35:26;5.00;;;2.70;;
67500;SDS011;54349;52.528;19.760;2023-09-19T14:37:54;5.30;;;2.50;;
67500;SDS011;54349;52.528;19.760;2023-09-19T14:40:23;4.90;;;2.50;;
67500;SDS011;54349;52.528;19.760;2023-09-19T14:42:53;5.10;;;2.60;;
67500;SDS011;54349;52.528;19.760;2023-09-19T14:45:22;4.40;;;2.40;;
67500;SDS011;54349;52.528;19.760;2023-09-19T14:47:55;5.40;;;2.60;;
67500;SDS011;54349;52.528;19.760;2023-09-19T14:50:24;6.50;;;2.90;;
67500;SDS011;54349;52.528;19.760;2023-09-19T14:52:54;4.20;;;2.60;;
67500;SDS011;54349;52.528;19.760;2023-09-19T14:55:22;7.40;;;2.30;;
67500;SDS011;54349;52.528;19.760;2023-09-19T14:57:51;5.30;;;2.60;;
67500;SDS011;54349;52.528;19.760;2023-09-19T15:00:19;5.50;;;2.80;;
67500;SDS011;54349;52.528;19.760;2023-09-19T15:02:49;5.40;;;2.60;;
67500;SDS011;54349;52.528;19.760;2023-09-19T15:05:18;4.50;;;2.50;;
67500;SDS011;54349;52.528;19.760;2023-09-19T15:07:47;5.10;;;2.30;;
67500;SDS011;54349;52.528;19.760;2023-09-19T15:10:16;4.70;;;2.70;;
67500;SDS011;54349;52.528;19.760;2023-09-19T15:12:46;4.30;;;2.70;;
67500;SDS011;54349;52.528;19.760;2023-09-19T15:15:14;3.40;;;2.20;;
67500;SDS011;54349;52.528;19.760;2023-09-19T15:17:43;6.20;;;2.50;;
67500;SDS011;54349;52.528;19.760;2023-09-19T15:20:11;2.90;;;2.20;;
67500;SDS011;54349;52.528;19.760;2023-09-19T15:22:42;4.90;;;2.50;;
67500;SDS011;54349;52.528;19.760;2023-09-19T15:25:10;3.20;;;2.40;;
67500;SDS011;54349;52.528;19.760;2023-09-19T15:27:39;4.20;;;2.40;;
67500;SDS011;54349;52.528;19.760;2023-09-19T15:30:09;4.20;;;2.20;;
67500;SDS011;54349;52.528;19.760;2023-09-19T15:32:38;5.10;;;2.40;;
67500;SDS011;54349;52.528;19.760;2023-09-19T15:35:07;5.30;;;2.20;;
67500;SDS011;54349;52.528;19.760;2023-09-19T15:37:37;3.80;;;2.30;;
67500;SDS011;54349;52.528;19.760;2023-09-19T15:40:07;5.00;;;2.30;;